Time;durP1;ratioP1;P1;durP2;ratioP2;P2;SDS_P1;SDS_P2;PMS_P1;PMS_P2;Temp;Humidity;BMP_temperature;BMP_pressure;BME280_temperature;BME280_humidity;BME280_pressure;Samples;Min_cycle;Max_cycle;Signal;HPM_P1;HPM_P2
2023/10/14 00:01:55;;;;;;;2.00;1.00;;;;;;;14.83;100.00;100081.41;5046558;28;20048;-83
2023/10/14 00:04:26;;;;;;;2.22;0.80;;;;;;;14.80;100.00;100097.59;5048157;28;20032;-83
2023/10/14 00:06:51;;;;;;;2.38;0.73;;;;;;;14.75;100.00;100126.38;5045820;28;20696;-83
2023/10/14 00:09:17;;;;;;;3.45;0.75;;;;;;;14.63;100.00;100127.63;5034939;28;20028;-83
2023/10/14 00:11:55;;;;;;;3.08;1.20;;;;;;;14.48;100.00;100092.16;5040451;28;20025;-82
2023/10/14 00:14:23;;;;;;;2.88;0.80;;;;;;;14.43;100.00;100107.69;5049026;28;20032;-83
2023/10/14 00:16:51;;;;;;;2.33;0.90;;;;;;;14.44;100.00;100106.69;5049274;28;20070;-83
2023/10/14 00:19:18;;;;;;;2.35;0.80;;;;;;;14.34;100.00;100106.75;5052983;28;20227;-83
2023/10/14 00:21:46;;;;;;;1.80;0.60;;;;;;;14.33;100.00;100113.84;5052337;28;20025;-83
2023/10/14 00:24:16;;;;;;;4.35;0.70;;;;;;;14.31;100.00;100120.28;5052219;28;20036;-83
2023/10/14 00:26:47;;;;;;;1.80;0.70;;;;;;;14.20;100.00;100102.84;5046781;28;20036;-83
2023/10/14 00:31:41;;;;;;;3.92;0.98;;;;;;;14.24;100.00;100121.91;5051131;28;20120;-83
2023/10/14 00:34:07;;;;;;;1.70;0.60;;;;;;;14.17;100.00;100137.56;5053877;28;20509;-84
2023/10/14 00:36:34;;;;;;;5.28;0.60;;;;;;;14.11;100.00;100165.47;5053321;28;20033;-84
2023/10/14 00:39:23;;;;;;;4.05;0.60;;;;;;;14.13;100.00;100165.31;5050518;28;20048;-83
2023/10/14 00:41:52;;;;;;;1.23;0.60;;;;;;;14.11;100.00;100167.28;5052144;28;20033;-83
2023/10/14 00:44:18;;;;;;;2.78;0.85;;;;;;;14.05;100.00;100159.97;5048338;28;20070;-83
2023/10/14 00:46:50;;;;;;;3.67;0.98;;;;;;;14.04;100.00;100169.72;5052653;28;20041;-83
2023/10/14 00:49:23;;;;;;;2.67;0.80;;;;;;;14.09;100.00;100166.59;5052758;28;20021;-83
2023/10/14 00:51:57;;;;;;;3.05;0.98;;;;;;;14.06;100.00;100161.63;5052395;28;20159;-83
2023/10/14 00:55:12;;;;;;;3.72;1.00;;;;;;;13.98;100.00;100156.25;5053601;28;20047;-82
2023/10/14 00:59:47;;;;;;;2.53;1.23;;;;;;;14.00;100.00;100170.97;5052226;28;20036;-82
2023/10/14 01:02:14;;;;;;;3.67;1.75;;;;;;;14.02;100.00;100176.13;5068673;28;20024;-82
2023/10/14 01:04:42;;;;;;;2.83;1.50;;;;;;;13.96;100.00;100182.84;5039348;28;20029;-82
2023/10/14 01:07:13;;;;;;;9.73;1.95;;;;;;;14.02;100.00;100190.19;5051610;28;20033;-82
2023/10/14 01:12:18;;;;;;;5.18;2.33;;;;;;;13.93;100.00;100193.72;5052757;28;20037;-82
2023/10/14 01:15:35;;;;;;;4.88;3.10;;;;;;;13.98;100.00;100198.56;5052515;28;20057;-82
2023/10/14 01:17:33;;;;;;;4.72;3.28;;;;;;;13.89;100.00;100208.22;5043192;28;20040;-83
2023/10/14 01:20:11;;;;;;;4.78;3.38;;;;;;;13.86;100.00;100240.28;5050822;28;20471;-83
2023/10/14 01:22:38;;;;;;;2.75;1.60;;;;;;;13.73;100.00;100245.94;5050628;28;20039;-83
2023/10/14 01:25:06;;;;;;;11.90;1.60;;;;;;;13.53;100.00;100244.34;5067753;28;20055;-82
2023/10/14 01:27:35;;;;;;;5.03;1.30;;;;;;;13.47;100.00;100259.00;5058252;28;20033;-84
2023/10/14 01:30:08;;;;;;;8.00;1.70;;;;;;;13.41;100.00;100269.31;5049828;28;20013;-83
2023/10/14 01:35:02;;;;;;;8.95;1.77;;;;;;;13.34;100.00;100276.16;5032703;28;20430;-83
2023/10/14 01:37:34;;;;;;;5.43;1.90;;;;;;;13.27;100.00;100288.31;5065362;28;20058;-82
2023/10/14 01:40:17;;;;;;;7.30;1.88;;;;;;;13.21;100.00;100292.34;5051349;28;20043;-83
2023/10/14 01:42:42;;;;;;;10.10;1.85;;;;;;;13.20;100.00;100297.75;5051289;28;20036;-83
2023/10/14 01:45:07;;;;;;;7.57;1.75;;;;;;;13.23;100.00;100308.06;5051648;28;20037;-82
2023/10/14 01:47:35;;;;;;;9.48;1.95;;;;;;;13.15;100.00;100311.38;5052732;28;20158;-82
2023/10/14 01:50:01;;;;;;;9.93;1.75;;;;;;;13.14;100.00;100323.75;5049745;28;20036;-82
2023/10/14 01:52:26;;;;;;;8.73;1.92;;;;;;;13.07;100.00;100333.22;5051723;28;20017;-81
2023/10/14 01:54:55;;;;;;;8.52;2.38;;;;;;;12.99;100.00;100345.47;5047905;28;20041;-82
2023/10/14 01:57:24;;;;;;;7.43;1.83;;;;;;;12.90;100.00;100341.88;5031170;28;20045;-82
2023/10/14 01:59:49;;;;;;;8.93;2.30;;;;;;;12.87;100.00;100352.72;5031330;28;20071;-81
2023/10/14 02:02:20;;;;;;;10.45;2.08;;;;;;;12.80;100.00;100360.34;5033245;28;20029;-82
2023/10/14 02:04:46;;;;;;;9.90;2.50;;;;;;;12.80;100.00;100356.84;5051965;28;20513;-82
2023/10/14 02:07:30;;;;;;;11.48;2.70;;;;;;;12.79;100.00;100366.59;5045455;28;20028;-82
2023/10/14 02:09:55;;;;;;;7.45;2.00;;;;;;;12.79;100.00;100381.59;5049989;28;20033;-82
2023/10/14 02:12:23;;;;;;;10.48;2.25;;;;;;;12.77;100.00;100389.66;5052478;28;20048;-82
2023/10/14 02:14:57;;;;;;;9.35;2.30;;;;;;;12.80;100.00;100396.47;5049586;28;20085;-81
2023/10/14 02:17:24;;;;;;;9.10;2.60;;;;;;;12.80;100.00;100396.47;5051845;28;20395;-82
2023/10/14 02:19:50;;;;;;;12.23;2.40;;;;;;;12.83;100.00;100401.50;5066707;28;20150;-81
2023/10/14 02:22:21;;;;;;;8.60;2.30;;;;;;;12.79;100.00;100402.72;5051160;28;20032;-82
2023/10/14 02:24:48;;;;;;;11.27;2.50;;;;;;;12.79;100.00;100411.47;5050086;28;20029;-81
2023/10/14 02:27:14;;;;;;;8.07;2.03;;;;;;;12.77;100.00;100420.50;5049437;28;20489;-81
2023/10/14 02:29:43;;;;;;;13.15;2.28;;;;;;;12.78;100.00;100430.09;5050689;28;20056;-81
2023/10/14 02:32:12;;;;;;;9.38;2.30;;;;;;;12.78;100.00;100444.13;5049620;28;20024;-81
2023/10/14 02:34:39;;;;;;;6.10;2.30;;;;;;;12.77;100.00;100449.53;5050281;28;20095;-81
2023/10/14 02:37:07;;;;;;;14.20;2.35;;;;;;;12.68;100.00;100459.13;5051404;28;20036;-81
2023/10/14 02:39:33;;;;;;;11.65;2.30;;;;;;;12.67;100.00;100451.34;5050750;28;20150;-82
2023/10/14 02:41:59;;;;;;;14.20;2.47;;;;;;;12.63;100.00;100465.78;5049467;28;20108;-81
2023/10/14 02:44:28;;;;;;;12.40;2.78;;;;;;;12.59;100.00;100475.78;5063727;28;20051;-81
2023/10/14 02:46:54;;;;;;;11.48;2.83;;;;;;;12.49;100.00;100485.47;5031801;28;20522;-81
2023/10/14 02:49:24;;;;;;;10.60;2.30;;;;;;;12.47;100.00;100488.25;5050215;28;20028;-81
2023/10/14 02:51:52;;;;;;;13.93;2.80;;;;;;;12.38;100.00;100496.94;5050952;28;20028;-81
2023/10/14 02:54:26;;;;;;;15.52;3.25;;;;;;;12.30;100.00;100502.06;5066689;28;20033;-82
2023/10/14 02:59:23;;;;;;;13.88;3.45;;;;;;;12.16;100.00;100524.38;5051285;28;20041;-81
2023/10/14 03:02:09;;;;;;;15.02;3.03;;;;;;;12.11;100.00;100539.75;5050427;28;20104;-81
2023/10/14 03:07:35;;;;;;;17.13;3.22;;;;;;;11.98;100.00;100554.09;5042750;28;20025;-81
2023/10/14 03:12:41;;;;;;;12.52;3.20;;;;;;;11.82;100.00;100568.56;5050669;28;20029;-82
2023/10/14 03:15:19;;;;;;;12.07;2.80;;;;;;;11.81;100.00;100574.81;5050429;28;20032;-81
2023/10/14 03:17:56;;;;;;;17.45;3.17;;;;;;;11.81;100.00;100581.88;5049748;28;20028;-81
2023/10/14 03:20:58;;;;;;;14.10;3.13;;;;;;;11.71;100.00;100584.41;5050771;28;20036;-82
2023/10/14 03:25:39;;;;;;;11.57;2.75;;;;;;;11.66;100.00;100591.88;5049350;28;20037;-82
2023/10/14 03:28:12;;;;;;;16.60;3.25;;;;;;;11.58;100.00;100600.38;5048946;28;20013;-81
2023/10/14 03:30:44;;;;;;;12.57;2.65;;;;;;;11.56;100.00;100610.22;5046780;28;20414;-81
2023/10/14 03:33:10;;;;;;;12.77;2.92;;;;;;;11.52;100.00;100623.75;5037024;28;20053;-81
2023/10/14 03:35:53;;;;;;;12.85;2.80;;;;;;;11.46;100.00;100622.47;5061886;28;20037;-81
2023/10/14 03:38:26;;;;;;;12.13;3.10;;;;;;;11.48;100.00;100630.25;5028318;28;20056;-81
2023/10/14 03:41:10;;;;;;;18.93;3.17;;;;;;;11.39;100.00;100631.00;5036445;28;20032;-81
2023/10/14 03:43:48;;;;;;;11.23;3.10;;;;;;;11.33;100.00;100636.75;5048285;28;20028;-81
2023/10/14 03:46:23;;;;;;;14.52;3.25;;;;;;;11.24;100.00;100648.88;5047242;28;20060;-81
2023/10/14 03:48:49;;;;;;;15.30;3.10;;;;;;;11.20;100.00;100658.78;5047963;28;20491;-81
2023/10/14 03:51:25;;;;;;;10.38;2.80;;;;;;;11.21;100.00;100659.66;5036553;28;20032;-81
2023/10/14 03:53:52;;;;;;;10.48;3.13;;;;;;;11.18;100.00;100665.16;5028553;28;20029;-81
2023/10/14 03:56:21;;;;;;;14.57;3.28;;;;;;;11.05;100.00;100670.56;5035534;28;20421;-82
2023/10/14 03:58:54;;;;;;;16.50;3.00;;;;;;;10.98;100.00;100669.38;5048849;28;20057;-82
2023/10/14 04:01:23;;;;;;;14.43;3.33;;;;;;;10.90;100.00;100667.34;5049370;28;20045;-81
2023/10/14 04:03:52;;;;;;;12.70;3.05;;;;;;;10.90;100.00;100679.66;5064718;28;20041;-81
2023/10/14 04:06:21;;;;;;;10.65;2.55;;;;;;;10.85;100.00;100684.44;5047991;28;20025;-82
2023/10/14 04:08:49;;;;;;;10.27;2.55;;;;;;;10.77;100.00;100690.28;5049729;28;20022;-81
2023/10/14 04:11:25;;;;;;;17.15;3.20;;;;;;;10.80;100.00;100702.38;5049581;28;20108;-81
2023/10/14 04:14:13;;;;;;;14.32;2.95;;;;;;;10.73;100.00;100707.25;5049689;28;20095;-81
2023/10/14 04:21:53;;;;;;;17.52;3.45;;;;;;;10.60;100.00;100723.16;5040585;28;20122;-81
2023/10/14 04:26:48;;;;;;;12.32;2.88;;;;;;;10.54;100.00;100731.53;5043360;28;20040;-81
2023/10/14 04:29:34;;;;;;;12.85;3.05;;;;;;;10.51;100.00;100744.91;5048523;28;20033;-81
2023/10/14 04:32:07;;;;;;;13.95;2.90;;;;;;;10.47;100.00;100745.25;5036583;28;20033;-81
2023/10/14 04:34:35;;;;;;;16.83;3.70;;;;;;;10.46;100.00;100747.06;5029495;28;20029;-81
2023/10/14 04:37:07;;;;;;;17.60;3.45;;;;;;;10.42;100.00;100766.66;5044834;28;20029;-81
2023/10/14 04:39:42;;;;;;;16.30;3.70;;;;;;;10.38;100.00;100772.22;5048394;28;20029;-81
2023/10/14 04:44:58;;;;;;;15.48;3.08;;;;;;;10.33;100.00;100778.66;5043913;28;20037;-81
2023/10/14 04:47:36;;;;;;;14.07;3.15;;;;;;;10.27;100.00;100779.13;5041805;28;20061;-81
2023/10/14 04:50:22;;;;;;;12.18;3.20;;;;;;;10.29;100.00;100792.16;5048242;28;20024;-82
2023/10/14 04:52:50;;;;;;;18.50;3.60;;;;;;;10.24;100.00;100795.13;5032026;28;20078;-81
2023/10/14 04:55:26;;;;;;;13.15;3.20;;;;;;;10.29;100.00;100794.78;5048272;28;20029;-81
2023/10/14 04:58:25;;;;;;;12.73;3.15;;;;;;;10.23;100.00;100800.50;5048570;28;20116;-81
2023/10/14 05:00:46;;;;;;;19.87;3.87;;;;;;;10.17;100.00;100803.56;5045973;28;20490;-80
2023/10/14 05:03:13;;;;;;;13.93;3.35;;;;;;;10.19;100.00;100812.16;5042196;28;20394;-80
2023/10/14 05:06:03;;;;;;;17.38;3.53;;;;;;;10.16;100.00;100822.91;5047105;28;20025;-79
2023/10/14 05:08:51;;;;;;;16.88;3.40;;;;;;;10.14;100.00;100817.75;5052791;28;20080;-80
2023/10/14 05:11:18;;;;;;;17.67;3.70;;;;;;;10.10;100.00;100828.63;5052511;28;20037;-80
2023/10/14 05:13:53;;;;;;;11.25;2.90;;;;;;;10.04;100.00;100829.91;5051387;28;20033;-80
2023/10/14 05:16:21;;;;;;;15.70;3.50;;;;;;;10.13;100.00;100831.03;5049469;28;20507;-81
2023/10/14 05:19:03;;;;;;;18.50;3.58;;;;;;;10.05;100.00;100836.84;5050677;28;20028;-81
2023/10/14 05:21:44;;;;;;;16.63;3.25;;;;;;;10.08;100.00;100846.28;5043843;28;20108;-81
2023/10/14 05:24:11;;;;;;;19.02;3.67;;;;;;;10.00;100.00;100855.53;5066373;28;20032;-81
2023/10/14 05:26:58;;;;;;;14.18;3.08;;;;;;;9.98;100.00;100856.59;5049553;28;20024;-80
2023/10/14 05:29:24;;;;;;;18.08;3.20;;;;;;;9.99;100.00;100858.28;5032966;28;20140;-81
2023/10/14 05:31:50;;;;;;;14.23;3.25;;;;;;;9.94;100.00;100855.97;5030678;28;20073;-80
2023/10/14 05:34:26;;;;;;;16.17;3.22;;;;;;;9.91;100.00;100850.94;5031634;28;20024;-80
2023/10/14 05:36:58;;;;;;;17.35;3.65;;;;;;;9.91;100.00;100861.44;5040080;28;20025;-80
2023/10/14 05:39:24;;;;;;;15.75;3.33;;;;;;;9.86;100.00;100863.56;5050216;28;20036;-81
2023/10/14 05:41:56;;;;;;;14.60;2.95;;;;;;;9.84;100.00;100875.13;5066044;28;20025;-81
2023/10/14 05:44:22;;;;;;;13.38;3.22;;;;;;;9.82;100.00;100875.25;5049346;28;20041;-81
2023/10/14 05:46:47;;;;;;;15.05;3.03;;;;;;;9.78;100.00;100876.41;5051664;28;20044;-81
2023/10/14 05:49:12;;;;;;;21.38;3.35;;;;;;;9.80;100.00;100885.03;5053203;28;20570;-80
2023/10/14 05:51:38;;;;;;;14.20;3.13;;;;;;;9.87;100.00;100896.78;5038614;28;20493;-81
2023/10/14 05:54:04;;;;;;;19.20;3.50;;;;;;;9.86;100.00;100903.00;5052531;28;20104;-81
2023/10/14 05:56:29;;;;;;;14.30;3.13;;;;;;;9.93;100.00;100896.34;5051284;28;20035;-81
2023/10/14 05:58:54;;;;;;;13.63;3.05;;;;;;;9.88;100.00;100898.47;5052852;28;20324;-81
2023/10/14 06:01:20;;;;;;;14.15;3.22;;;;;;;9.83;100.00;100908.47;5066210;28;20020;-81
2023/10/14 06:03:46;;;;;;;11.20;3.15;;;;;;;9.84;100.00;100918.03;5051584;28;20082;-81
2023/10/14 06:06:16;;;;;;;18.98;3.42;;;;;;;9.88;100.00;100924.75;5049894;28;20032;-81
2023/10/14 06:08:46;;;;;;;16.45;3.35;;;;;;;9.84;100.00;100927.69;5050106;28;20017;-80
2023/10/14 06:11:12;;;;;;;10.90;3.00;;;;;;;9.82;100.00;100933.06;5038743;28;20104;-81
2023/10/14 06:13:37;;;;;;;10.50;2.83;;;;;;;9.81;100.00;100934.00;5051091;28;20028;-81
2023/10/14 06:16:11;;;;;;;17.08;3.38;;;;;;;9.83;100.00;100942.63;5031296;28;20562;-81
2023/10/14 06:18:40;;;;;;;12.80;3.20;;;;;;;9.80;100.00;100953.34;5031415;28;20029;-79
2023/10/14 06:21:08;;;;;;;13.13;3.17;;;;;;;9.78;100.00;100957.03;5031137;28;20025;-80
2023/10/14 06:23:33;;;;;;;16.77;3.80;;;;;;;9.80;100.00;100961.22;5050365;28;20090;-80
2023/10/14 06:25:59;;;;;;;19.05;3.70;;;;;;;9.83;100.00;100968.06;5050596;28;20029;-80
2023/10/14 06:28:25;;;;;;;14.30;3.30;;;;;;;9.81;100.00;100968.16;5050278;28;20032;-80
2023/10/14 06:30:51;;;;;;;14.18;3.10;;;;;;;9.83;100.00;100974.16;5045905;28;20033;-79
2023/10/14 06:33:16;;;;;;;19.30;3.38;;;;;;;9.88;100.00;100976.47;5040015;28;20044;-79
2023/10/14 06:35:42;;;;;;;18.55;3.45;;;;;;;9.89;100.00;100989.50;5057740;28;20025;-79
2023/10/14 06:38:09;;;;;;;17.35;3.42;;;;;;;9.91;100.00;100992.03;5046989;28;20040;-79
2023/10/14 06:40:36;;;;;;;11.60;2.80;;;;;;;9.98;100.00;101004.63;5035161;28;20422;-80
2023/10/14 06:43:07;;;;;;;16.25;3.50;;;;;;;9.95;100.00;101004.84;5070411;28;20027;-80
2023/10/14 06:45:33;;;;;;;12.75;3.15;;;;;;;9.98;100.00;101009.88;5031592;28;20068;-80
2023/10/14 06:47:59;;;;;;;13.90;3.25;;;;;;;9.99;100.00;101015.97;5030540;28;20018;-80
2023/10/14 06:50:25;;;;;;;16.23;3.30;;;;;;;9.94;100.00;101020.72;5031454;28;20552;-80
2023/10/14 06:52:58;;;;;;;11.68;3.13;;;;;;;9.91;100.00;101019.16;5030963;28;20048;-80
2023/10/14 06:55:26;;;;;;;13.52;3.28;;;;;;;9.97;100.00;101026.59;5030726;28;20032;-80
2023/10/14 06:57:53;;;;;;;17.13;3.65;;;;;;;9.93;100.00;101043.53;5055709;28;20021;-80
2023/10/14 07:00:25;;;;;;;15.25;3.53;;;;;;;9.92;100.00;101041.00;5033177;28;20167;-80
2023/10/14 07:02:53;;;;;;;13.30;3.35;;;;;;;9.90;100.00;101043.75;5050454;28;20039;-80
2023/10/14 07:05:19;;;;;;;15.45;3.25;;;;;;;9.88;100.00;101050.91;5049997;28;20029;-80
2023/10/14 07:07:46;;;;;;;14.43;3.15;;;;;;;9.89;100.00;101049.94;5051031;28;20024;-80
2023/10/14 07:10:12;;;;;;;15.65;3.30;;;;;;;9.89;100.00;101063.09;5051390;28;20024;-79
2023/10/14 07:12:38;;;;;;;14.18;3.10;;;;;;;9.93;100.00;101063.72;5049964;28;20032;-80
2023/10/14 07:15:12;;;;;;;15.70;3.83;;;;;;;9.92;100.00;101062.88;5045139;28;20068;-80
2023/10/14 07:17:42;;;;;;;15.75;3.33;;;;;;;9.95;100.00;101074.97;5034912;28;20030;-81
2023/10/14 07:20:10;;;;;;;15.85;3.38;;;;;;;9.97;100.00;101071.28;5065914;28;20051;-80
2023/10/14 07:22:37;;;;;;;15.40;3.70;;;;;;;9.98;100.00;101080.84;5040402;28;20056;-78
2023/10/14 07:25:05;;;;;;;18.58;3.63;;;;;;;9.98;100.00;101083.50;5050564;28;20087;-75
2023/10/14 07:27:35;;;;;;;15.38;3.22;;;;;;;10.03;100.00;101075.31;5050465;28;20037;-76
2023/10/14 07:30:01;;;;;;;13.80;3.63;;;;;;;10.05;100.00;101089.19;5046844;28;20104;-75
2023/10/14 07:32:30;;;;;;;14.07;3.22;;;;;;;10.08;100.00;101093.41;5050544;28;20031;-76
2023/10/14 07:34:56;;;;;;;15.60;3.58;;;;;;;10.11;100.00;101099.28;5049608;28;20029;-81
2023/10/14 07:37:24;;;;;;;19.13;3.35;;;;;;;10.13;100.00;101102.66;5061831;28;20513;-81
2023/10/14 07:39:52;;;;;;;26.73;4.07;;;;;;;10.17;100.00;101108.53;5050068;28;20025;-81
2023/10/14 07:42:18;;;;;;;14.77;2.97;;;;;;;10.22;100.00;101095.97;5055007;28;20107;-81
2023/10/14 07:44:43;;;;;;;16.13;3.60;;;;;;;10.27;100.00;101104.38;5065339;28;20155;-84
2023/10/14 07:47:10;;;;;;;18.00;3.47;;;;;;;10.30;100.00;101109.41;5089500;28;20053;-82
2023/10/14 07:49:38;;;;;;;12.73;3.25;;;;;;;10.35;100.00;101118.66;5109220;28;20020;-81
2023/10/14 07:52:06;;;;;;;19.52;3.63;;;;;;;10.39;100.00;101124.56;5072287;28;20013;-80
2023/10/14 07:54:31;;;;;;;18.42;3.90;;;;;;;10.44;100.00;101122.47;5057345;28;20008;-81
2023/10/14 07:56:57;;;;;;;16.38;3.78;;;;;;;10.52;100.00;101120.16;5071179;28;20063;-81
2023/10/14 07:59:23;;;;;;;13.20;3.20;;;;;;;10.60;100.00;101133.63;5083747;28;20074;-81
2023/10/14 08:01:48;;;;;;;15.68;3.67;;;;;;;10.70;100.00;101128.53;5092070;28;21062;-81
2023/10/14 08:04:14;;;;;;;27.85;3.85;;;;;;;10.80;100.00;101136.63;5060557;28;20033;-78
2023/10/14 08:06:40;;;;;;;15.20;3.50;;;;;;;10.83;100.00;101134.66;5058140;28;20015;-78
2023/10/14 08:09:28;;;;;;;13.52;3.38;;;;;;;10.93;100.00;101140.09;5060095;28;20001;-82
2023/10/14 08:11:54;;;;;;;16.98;3.70;;;;;;;11.01;100.00;101137.75;5067745;28;20021;-80
2023/10/14 08:14:19;;;;;;;15.88;3.33;;;;;;;11.12;100.00;101137.00;5070966;28;21430;-80
2023/10/14 08:16:48;;;;;;;14.38;3.20;;;;;;;11.20;100.00;101153.06;5070256;28;20056;-81
2023/10/14 08:19:14;;;;;;;12.73;3.10;;;;;;;11.29;100.00;101160.34;5072296;28;20021;-82
2023/10/14 08:21:40;;;;;;;14.32;3.50;;;;;;;11.38;100.00;101164.94;5069185;28;20036;-78
2023/10/14 08:24:06;;;;;;;17.27;3.92;;;;;;;11.50;100.00;101160.56;5069088;28;20029;-81
2023/10/14 08:26:34;;;;;;;14.52;3.17;;;;;;;11.59;100.00;101165.16;5059683;28;20029;-82
2023/10/14 08:29:01;;;;;;;14.15;3.65;;;;;;;11.67;100.00;101170.75;5052296;28;20032;-81
2023/10/14 08:31:29;;;;;;;14.05;3.17;;;;;;;11.80;100.00;101173.34;5052581;28;20044;-81
2023/10/14 08:33:54;;;;;;;14.88;3.65;;;;;;;11.92;100.00;101175.06;5048132;28;20501;-81
2023/10/14 08:36:20;;;;;;;15.35;3.05;;;;;;;12.04;100.00;101181.25;5067407;28;20025;-82
2023/10/14 08:38:47;;;;;;;10.88;3.15;;;;;;;12.16;100.00;101183.78;5051691;28;20032;-81
2023/10/14 08:41:16;;;;;;;16.35;3.45;;;;;;;12.28;100.00;101189.94;5042919;28;20035;-81
2023/10/14 08:43:49;;;;;;;13.50;3.08;;;;;;;12.37;100.00;101198.94;5035389;28;20017;-81
2023/10/14 08:46:17;;;;;;;13.38;2.95;;;;;;;12.45;98.90;101205.34;5062793;28;20556;-81
2023/10/14 08:48:43;;;;;;;13.95;3.03;;;;;;;12.55;95.17;101213.41;5053343;28;20499;-81
2023/10/14 08:51:09;;;;;;;14.23;3.28;;;;;;;12.67;98.12;101216.88;5052529;28;20364;-87
2023/10/14 08:53:40;;;;;;;13.60;3.05;;;;;;;12.76;97.12;101219.66;5069203;28;20028;-81
2023/10/14 08:56:07;;;;;;;12.35;3.40;;;;;;;12.88;96.12;101215.25;5053388;28;20029;-78
2023/10/14 08:58:36;;;;;;;14.88;3.20;;;;;;;12.97;96.34;101214.53;5051908;28;20021;-81
2023/10/14 09:01:02;;;;;;;17.65;3.17;;;;;;;13.00;92.79;101219.56;5053649;28;20029;-81
2023/10/14 09:03:30;;;;;;;11.32;2.92;;;;;;;13.10;92.81;101219.66;5053083;28;20021;-81
2023/10/14 09:05:56;;;;;;;12.05;3.40;;;;;;;13.20;95.00;101219.81;5052136;28;20405;-81
2023/10/14 09:08:21;;;;;;;19.35;3.53;;;;;;;13.28;92.55;101222.72;5051178;28;20017;-79
2023/10/14 09:10:49;;;;;;;11.43;3.35;;;;;;;13.31;90.48;101236.53;5067590;28;20090;-81
2023/10/14 09:13:22;;;;;;;15.88;4.07;;;;;;;13.40;90.56;101243.72;5052066;28;20094;-81
2023/10/14 09:15:48;;;;;;;15.88;3.78;;;;;;;13.41;94.07;101240.09;5045035;28;20102;-81
2023/10/14 09:18:18;;;;;;;15.23;3.45;;;;;;;13.52;91.60;101239.25;5050235;28;20063;-81
2023/10/14 09:20:44;;;;;;;15.43;3.15;;;;;;;13.66;89.81;101223.13;5050378;28;20021;-81
2023/10/14 09:23:18;;;;;;;12.85;3.67;;;;;;;13.69;87.88;101233.47;5050652;28;20063;-79
2023/10/14 09:25:52;;;;;;;10.77;2.95;;;;;;;13.71;84.94;101239.47;5050532;28;20032;-80
2023/10/14 09:28:22;;;;;;;12.52;2.85;;;;;;;13.76;86.39;101239.09;5049859;28;20028;-80
2023/10/14 09:30:51;;;;;;;16.48;3.30;;;;;;;13.80;84.43;101236.06;5049351;28;20033;-82
2023/10/14 09:33:31;;;;;;;12.93;2.72;;;;;;;13.85;83.11;101235.69;5050655;28;20025;-81
2023/10/14 09:36:11;;;;;;;10.68;3.20;;;;;;;13.91;82.93;101240.47;5057795;28;20247;-80
2023/10/14 09:38:40;;;;;;;15.57;3.28;;;;;;;13.99;85.37;101234.56;5049926;28;20029;-81
2023/10/14 09:41:07;;;;;;;11.20;2.97;;;;;;;14.11;80.90;101244.16;5049880;28;20116;-81
2023/10/14 09:43:38;;;;;;;9.57;2.90;;;;;;;14.24;82.90;101239.50;5048619;28;20507;-81
2023/10/14 09:46:11;;;;;;;13.75;3.63;;;;;;;14.27;82.33;101247.19;5047881;28;20049;-80
2023/10/14 09:48:37;;;;;;;11.10;2.97;;;;;;;14.14;84.80;101249.19;5048741;28;20017;-80
2023/10/14 09:51:04;;;;;;;9.75;3.10;;;;;;;14.04;82.88;101250.91;5049563;28;20398;-80
2023/10/14 09:53:34;;;;;;;13.38;2.85;;;;;;;13.97;79.33;101258.50;5050069;28;20390;-81
2023/10/14 09:56:04;;;;;;;10.25;2.72;;;;;;;14.04;74.96;101253.56;5047092;28;20495;-81
2023/10/14 09:58:41;;;;;;;11.85;2.63;;;;;;;14.07;77.08;101259.44;5046783;28;20171;-81
2023/10/14 10:01:11;;;;;;;11.38;3.00;;;;;;;14.18;73.63;101263.84;5050664;28;20029;-81
2023/10/14 10:03:45;;;;;;;13.38;3.25;;;;;;;14.24;71.21;101259.84;5050655;28;20694;-80
2023/10/14 10:06:46;;;;;;;13.68;3.08;;;;;;;14.24;75.01;101271.28;5050893;28;20021;-80
2023/10/14 10:09:47;;;;;;;10.43;2.35;;;;;;;14.44;72.83;101264.38;5051276;28;20021;-80
2023/10/14 10:12:17;;;;;;;8.35;2.45;;;;;;;15.42;66.67;101272.72;5050634;28;20120;-80
2023/10/14 10:14:44;;;;;;;12.55;3.08;;;;;;;15.92;67.82;101262.09;5046100;28;20035;-79
2023/10/14 10:17:14;;;;;;;11.35;3.10;;;;;;;16.05;64.31;101275.97;5049737;28;20025;-80
2023/10/14 10:19:58;;;;;;;8.68;2.17;;;;;;;16.17;62.98;101264.22;5048577;28;20028;-80
2023/10/14 10:22:25;;;;;;;10.13;2.60;;;;;;;15.82;62.71;101267.41;5050583;28;20191;-80
2023/10/14 10:24:53;;;;;;;8.77;2.15;;;;;;;15.29;59.34;101280.06;5049459;28;20064;-80
2023/10/14 10:27:20;;;;;;;10.30;2.30;;;;;;;15.00;60.55;101272.81;5049189;28;20029;-80
2023/10/14 10:29:50;;;;;;;13.25;2.70;;;;;;;14.89;64.07;101282.66;5049016;28;20028;-79
2023/10/14 10:32:20;;;;;;;12.15;2.95;;;;;;;14.78;65.24;101280.06;5049735;28;20024;-80
2023/10/14 10:35:09;;;;;;;9.05;2.90;;;;;;;14.71;68.67;101283.22;5048176;28;20029;-80
2023/10/14 10:37:39;;;;;;;10.98;2.60;;;;;;;14.38;65.31;101283.34;5045824;28;20025;-80
2023/10/14 10:40:10;;;;;;;11.80;2.60;;;;;;;14.37;67.09;101285.16;5047711;28;20029;-81
2023/10/14 10:42:48;;;;;;;14.07;2.97;;;;;;;14.45;70.32;101297.81;5049745;28;20119;-79
2023/10/14 10:45:20;;;;;;;13.40;2.97;;;;;;;14.20;65.82;101300.78;5050559;28;20071;-80
2023/10/14 10:47:52;;;;;;;9.65;2.80;;;;;;;13.90;66.21;101312.88;5065105;28;20056;-79
2023/10/14 10:50:18;;;;;;;11.00;2.90;;;;;;;13.64;67.78;101312.31;5049863;28;20110;-78
2023/10/14 10:53:10;;;;;;;11.13;2.72;;;;;;;13.58;74.12;101315.44;5063076;28;20060;-78
2023/10/14 10:55:46;;;;;;;14.15;2.90;;;;;;;13.64;69.81;101317.63;5049257;28;20029;-78
2023/10/14 10:58:13;;;;;;;11.25;2.70;;;;;;;13.87;68.78;101309.63;5050867;28;20033;-79
2023/10/14 11:00:45;;;;;;;12.13;2.83;;;;;;;14.00;69.15;101315.59;5047098;28;20053;-78
2023/10/14 11:03:14;;;;;;;11.83;3.13;;;;;;;14.23;66.70;101311.09;5045832;28;20115;-80
2023/10/14 11:05:42;;;;;;;11.65;2.78;;;;;;;14.29;69.46;101306.16;5037888;28;20032;-80
2023/10/14 11:08:08;;;;;;;13.18;2.55;;;;;;;14.44;70.29;101305.91;5040582;28;20021;-81
2023/10/14 11:10:44;;;;;;;14.02;2.97;;;;;;;14.58;68.78;101310.88;5044487;28;20035;-80
2023/10/14 11:13:12;;;;;;;9.68;2.40;;;;;;;14.67;67.03;101316.25;5048265;28;20032;-82
2023/10/14 11:15:39;;;;;;;12.70;2.42;;;;;;;14.71;65.15;101314.16;5020382;28;20119;-78
2023/10/14 11:18:05;;;;;;;12.05;2.97;;;;;;;14.89;68.23;101309.16;5048738;28;20029;-80
2023/10/14 11:20:33;;;;;;;10.77;2.70;;;;;;;14.98;67.46;101303.91;5047780;28;20146;-78
2023/10/14 11:22:59;;;;;;;12.88;2.85;;;;;;;15.07;66.51;101312.03;5061158;28;20021;-80
2023/10/14 11:25:25;;;;;;;11.57;2.60;;;;;;;15.19;65.53;101317.13;5046304;28;20039;-80
2023/10/14 11:27:54;;;;;;;9.25;2.30;;;;;;;15.21;61.66;101320.50;5043652;28;20021;-79
2023/10/14 11:30:20;;;;;;;8.07;2.22;;;;;;;15.27;61.54;101313.81;5046334;28;20367;-80
2023/10/14 11:32:51;;;;;;;8.30;2.05;;;;;;;15.32;57.54;101316.91;5041083;28;20082;-79
2023/10/14 11:35:29;;;;;;;7.85;2.13;;;;;;;15.35;61.70;101314.00;5043663;28;20032;-80
2023/10/14 11:38:00;;;;;;;7.30;2.13;;;;;;;15.46;58.46;101323.66;5045474;28;20435;-80
2023/10/14 11:40:33;;;;;;;9.90;2.40;;;;;;;15.43;59.91;101319.47;5048654;28;20025;-81
2023/10/14 11:42:58;;;;;;;9.55;2.88;;;;;;;15.42;59.96;101323.09;5045159;28;20104;-79
2023/10/14 11:45:24;;;;;;;7.82;2.35;;;;;;;15.43;59.83;101324.78;5059930;28;20479;-80
2023/10/14 11:47:52;;;;;;;7.82;2.20;;;;;;;15.24;58.29;101330.84;5047755;28;20036;-77
2023/10/14 11:50:17;;;;;;;9.65;3.08;;;;;;;14.98;59.22;101322.44;5043075;28;20033;-79
2023/10/14 11:52:52;;;;;;;13.38;2.97;;;;;;;14.83;61.65;101320.28;5043571;28;20434;-77
2023/10/14 11:55:19;;;;;;;7.20;2.20;;;;;;;14.73;62.17;101326.31;5051147;28;20024;-78
2023/10/14 11:57:47;;;;;;;10.93;2.72;;;;;;;14.76;63.84;101332.31;5050608;28;20029;-79
2023/10/14 12:00:17;;;;;;;9.23;2.95;;;;;;;14.85;63.97;101340.38;5065521;28;20028;-78